Time;durP1;ratioP1;P1;durP2;ratioP2;P2;SDS_P1;SDS_P2;PMS_P1;PMS_P2;Temp;Humidity;BMP_temperature;BMP_pressure;BME280_temperature;BME280_humidity;BME280_pressure;Samples;Min_cycle;Max_cycle;Signal;HPM_P1;HPM_P2
2022/11/11 00:09:30;;;;;;;4.15;2.60;;;12.50;66.40;;;;;;21085910;28;20044;-62
2022/11/11 00:29:52;;;;;;;4.18;2.00;;;12.60;65.80;;;;;;21084420;28;20184;-61
2022/11/11 00:39:54;;;;;;;4.95;1.85;;;12.50;66.20;;;;;;21084290;28;20055;-61
2022/11/11 01:00:15;;;;;;;4.20;2.40;;;12.40;66.40;;;;;;21085116;28;20500;-61
2022/11/11 01:10:38;;;;;;;4.72;2.53;;;12.30;66.90;;;;;;21084611;28;20397;-61
2022/11/11 01:20:40;;;;;;;6.40;2.60;;;12.40;67.00;;;;;;21080175;28;20453;-63
2022/11/11 01:30:42;;;;;;;7.35;2.75;;;12.40;66.80;;;;;;21080264;28;20134;-61
2022/11/11 01:40:46;;;;;;;4.32;2.58;;;12.40;66.40;;;;;;21078788;28;20108;-60
2022/11/11 01:50:47;;;;;;;4.57;2.40;;;12.30;66.40;;;;;;21079141;28;20393;-62
2022/11/11 02:00:49;;;;;;;4.65;2.55;;;12.30;66.30;;;;;;21078893;28;20052;-63
2022/11/11 02:10:51;;;;;;;5.35;3.53;;;12.30;66.80;;;;;;21079137;28;20407;-62
2022/11/11 02:20:53;;;;;;;4.45;3.03;;;12.00;68.10;;;;;;21079048;28;20051;-63
2022/11/11 02:30:56;;;;;;;5.40;2.75;;;11.70;68.50;;;;;;21089280;28;20087;-60
2022/11/11 02:51:19;;;;;;;3.47;2.65;;;11.50;68.60;;;;;;21091810;28;20076;-60
2022/11/11 03:01:23;;;;;;;3.42;2.00;;;11.30;68.80;;;;;;21092118;28;20108;-62
2022/11/11 03:11:29;;;;;;;3.05;2.00;;;11.20;69.00;;;;;;21091723;28;20541;-62
2022/11/11 03:21:32;;;;;;;4.80;2.42;;;11.20;69.00;;;;;;21090087;28;20131;-60
2022/11/11 03:31:36;;;;;;;4.30;2.35;;;11.20;68.90;;;;;;21088690;28;20052;-59
2022/11/11 03:41:40;;;;;;;4.18;2.10;;;11.00;69.00;;;;;;21087570;28;20048;-61
2022/11/11 03:51:42;;;;;;;2.97;2.00;;;10.90;69.40;;;;;;21087706;28;20075;-60
2022/11/11 04:12:05;;;;;;;4.68;2.20;;;10.70;69.70;;;;;;21085636;28;20055;-61
2022/11/11 04:22:07;;;;;;;3.42;2.50;;;10.70;70.00;;;;;;21084534;28;20047;-62
2022/11/11 04:42:33;;;;;;;5.40;2.28;;;10.60;70.30;;;;;;21101947;28;20079;-67
2022/11/11 04:52:38;;;;;;;5.03;2.40;;;10.50;70.50;;;;;;21081989;28;20051;-63
2022/11/11 05:23:21;;;;;;;4.47;2.30;;;10.40;69.90;;;;;;21080073;28;20056;-69
2022/11/11 05:33:24;;;;;;;6.40;2.80;;;10.20;70.40;;;;;;21080488;28;20398;-61
2022/11/11 05:43:26;;;;;;;5.03;2.40;;;10.20;70.60;;;;;;21078917;28;20066;-61
2022/11/11 05:53:28;;;;;;;4.10;2.78;;;10.20;70.70;;;;;;21078492;28;20051;-70
2022/11/11 06:03:30;;;;;;;4.53;2.60;;;10.20;70.80;;;;;;21085848;28;20056;-63
2022/11/11 06:13:32;;;;;;;5.82;2.58;;;10.10;70.90;;;;;;21094932;28;20098;-63
2022/11/11 06:23:33;;;;;;;6.07;2.58;;;10.20;70.50;;;;;;21095581;28;20074;-64
2022/11/11 06:33:36;;;;;;;5.30;2.67;;;10.00;70.30;;;;;;21093675;28;20269;-61
2022/11/11 06:43:39;;;;;;;4.97;2.92;;;9.90;70.80;;;;;;21092948;28;20067;-63
2022/11/11 06:53:41;;;;;;;5.80;3.22;;;10.10;70.90;;;;;;21092650;28;20103;-64
2022/11/11 07:03:43;;;;;;;4.68;2.70;;;10.20;71.00;;;;;;21101312;28;20105;-63
2022/11/11 07:13:44;;;;;;;5.28;2.40;;;10.50;70.40;;;;;;21094731;28;20043;-63
2022/11/11 07:23:46;;;;;;;8.27;3.08;;;10.80;68.90;;;;;;21090477;28;20047;-60
2022/11/11 07:33:48;;;;;;;7.00;3.22;;;10.90;69.20;;;;;;21088907;28;20047;-63
2022/11/11 07:43:50;;;;;;;10.50;3.42;;;11.10;68.90;;;;;;21088098;28;20404;-60
2022/11/11 07:53:51;;;;;;;7.07;3.55;;;11.30;68.00;;;;;;21087449;28;20040;-60
2022/11/11 08:03:53;;;;;;;63.28;9.45;;;11.50;67.00;;;;;;21085157;28;20163;-61
2022/11/11 08:13:55;;;;;;;10.57;3.78;;;11.60;66.70;;;;;;21086382;28;20476;-61
2022/11/11 08:23:57;;;;;;;11.07;3.00;;;11.70;66.30;;;;;;21083216;28;20055;-61
2022/11/11 08:33:59;;;;;;;5.03;2.30;;;12.00;64.80;;;;;;21084992;28;20517;-63
2022/11/11 08:44:00;;;;;;;4.15;1.90;;;12.00;64.80;;;;;;21083099;28;20055;-65
2022/11/11 08:54:02;;;;;;;8.48;2.60;;;12.20;64.20;;;;;;21083140;28;20044;-63
2022/11/11 09:04:04;;;;;;;4.32;1.50;;;12.50;63.20;;;;;;21082145;28;20483;-68
2022/11/11 09:14:06;;;;;;;6.60;2.50;;;12.50;62.90;;;;;;21082419;28;20048;-65
2022/11/11 09:24:08;;;;;;;6.35;2.35;;;12.70;62.40;;;;;;21081398;28;20077;-62
2022/11/11 09:34:10;;;;;;;3.80;1.83;;;12.80;62.10;;;;;;21082204;28;20055;-61
2022/11/11 09:44:49;;;;;;;10.55;2.20;;;13.20;60.60;;;;;;21080466;28;20048;-62
2022/11/11 09:55:04;;;;;;;4.18;1.92;;;13.30;60.60;;;;;;21078438;28;20097;-61
2022/11/11 10:05:09;;;;;;;5.00;2.13;;;13.50;59.80;;;;;;21078644;28;20140;-62
2022/11/11 10:15:14;;;;;;;4.28;1.90;;;13.60;60.20;;;;;;21078400;28;20044;-61
2022/11/11 10:25:22;;;;;;;9.00;2.60;;;13.90;59.50;;;;;;21078751;28;20097;-61
2022/11/11 10:35:27;;;;;;;5.50;1.80;;;14.30;59.00;;;;;;21167346;28;20101;-64
2022/11/11 10:45:44;;;;;;;5.95;2.60;;;15.20;58.40;;;;;;21122390;28;20161;-63
2022/11/11 10:56:33;;;;;;;4.78;2.53;;;15.00;57.00;;;;;;21091381;28;20446;-63
2022/11/11 11:06:41;;;;;;;2.55;1.77;;;15.20;56.40;;;;;;20668366;28;20534;-63
2022/11/11 11:16:50;;;;;;;4.90;2.85;;;15.30;56.90;;;;;;20669834;28;20161;-60
2022/11/11 11:26:54;;;;;;;5.25;3.28;;;15.50;58.30;;;;;;20667414;28;20123;-61
2022/11/11 11:37:00;;;;;;;3.47;1.60;;;16.50;56.30;;;;;;20765415;28;20080;-61
2022/11/11 11:47:37;;;;;;;2.97;1.45;;;17.00;55.20;;;;;;21087417;28;20134;-63
2022/11/11 11:57:42;;;;;;;3.22;1.75;;;17.20;54.00;;;;;;21080584;28;20044;-62
2022/11/11 12:08:13;;;;;;;3.67;1.73;;;17.40;54.30;;;;;;21085324;28;20055;-60
2022/11/11 12:18:30;;;;;;;3.80;1.77;;;17.50;53.90;;;;;;20908980;28;20417;-61
2022/11/11 12:29:00;;;;;;;2.83;1.60;;;17.60;53.90;;;;;;20909355;28;20132;-64
2022/11/11 12:39:33;;;;;;;4.85;1.85;;;17.60;52.90;;;;;;20899437;28;20132;-65
2022/11/11 12:49:47;;;;;;;2.10;1.45;;;17.20;53.80;;;;;;20970277;28;20135;-64
2022/11/11 12:59:49;;;;;;;;;;;17.00;54.40;;;;;;21090740;28;20542;-64
2022/11/11 13:09:59;;;;;;;2.30;1.27;;;16.80;55.80;;;;;;21123178;28;19926;-63
2022/11/11 13:20:02;;;;;;;3.50;1.60;;;16.90;55.50;;;;;;21116545;28;20394;-65
2022/11/11 13:30:33;;;;;;;18.23;12.77;;;17.00;55.70;;;;;;21110006;28;20051;-62
2022/11/11 13:40:44;;;;;;;30.05;23.85;;;17.20;55.30;;;;;;21093022;28;20047;-64
2022/11/11 13:50:46;;;;;;;3.97;2.22;;;17.40;56.00;;;;;;21078930;28;20048;-62
2022/11/11 14:00:58;;;;;;;5.45;1.30;;;17.40;56.00;;;;;;21079669;28;20133;-60
2022/11/11 14:11:00;;;;;;;4.55;2.53;;;17.40;56.10;;;;;;21078385;28;20142;-64
2022/11/11 14:21:03;;;;;;;4.15;2.13;;;17.20;60.80;;;;;;21081920;28;20048;-64
2022/11/11 14:31:14;;;;;;;4.82;2.33;;;17.00;61.00;;;;;;21094848;28;20048;-67
2022/11/11 14:41:37;;;;;;;4.57;2.85;;;17.10;61.10;;;;;;21094879;28;20051;-62
2022/11/11 14:51:51;;;;;;;4.13;2.22;;;17.10;60.20;;;;;;21092930;28;20507;-64
2022/11/11 15:01:54;;;;;;;3.30;1.60;;;16.90;63.80;;;;;;21092477;28;20048;-63
2022/11/11 15:12:00;;;;;;;4.47;1.83;;;16.70;65.70;;;;;;21090506;28;20213;-64
2022/11/11 15:22:25;;;;;;;5.28;3.58;;;16.50;67.10;;;;;;21089691;28;20105;-67
2022/11/11 15:32:38;;;;;;;8.07;3.17;;;16.30;68.80;;;;;;21089247;28;20055;-66
2022/11/11 15:42:48;;;;;;;3.60;2.28;;;16.20;70.90;;;;;;21088783;28;20511;-63
2022/11/11 15:52:55;;;;;;;4.93;2.10;;;15.90;73.60;;;;;;21087247;28;20048;-62
2022/11/11 16:02:57;;;;;;;3.92;2.10;;;15.80;75.10;;;;;;21086805;28;20048;-66
2022/11/11 16:13:10;;;;;;;7.35;3.10;;;15.80;74.70;;;;;;21086301;28;20044;-61
2022/11/11 16:23:16;;;;;;;8.87;5.53;;;15.80;74.50;;;;;;21085983;28;20094;-63
2022/11/11 16:33:27;;;;;;;13.93;8.50;;;15.70;73.20;;;;;;21084150;28;20484;-63
2022/11/11 16:43:43;;;;;;;4.35;2.55;;;15.80;72.20;;;;;;21081501;28;20074;-63
2022/11/11 16:54:06;;;;;;;9.63;3.90;;;15.80;72.40;;;;;;21082041;28;20492;-65
2022/11/11 17:04:08;;;;;;;10.38;6.82;;;15.70;72.50;;;;;;21082608;28;20052;-70
2022/11/11 17:14:10;;;;;;;10.18;5.57;;;15.70;71.50;;;;;;21081400;28;20071;-67
2022/11/11 17:24:13;;;;;;;10.13;5.60;;;15.70;72.70;;;;;;21079897;28;20078;-65
2022/11/11 17:34:15;;;;;;;6.30;3.20;;;15.80;71.30;;;;;;21078961;28;20047;-71
2022/11/11 17:44:17;;;;;;;4.40;2.50;;;15.90;69.30;;;;;;21079742;28;20059;-62
2022/11/11 17:54:18;;;;;;;8.73;3.30;;;15.80;69.80;;;;;;21078909;28;20123;-70
2022/11/11 18:04:20;;;;;;;6.97;3.30;;;15.80;70.00;;;;;;21077731;28;20067;-65
2022/11/11 18:14:22;;;;;;;7.50;3.40;;;15.90;69.70;;;;;;21078822;28;20128;-68
2022/11/11 18:24:24;;;;;;;9.45;4.82;;;16.00;70.40;;;;;;21076954;28;20090;-64
2022/11/11 18:34:26;;;;;;;6.65;3.67;;;16.40;70.30;;;;;;21076962;28;20232;-69
2022/11/11 18:44:28;;;;;;;6.57;4.38;;;16.10;69.90;;;;;;21076003;28;20141;-64
2022/11/11 18:54:29;;;;;;;8.07;3.88;;;16.00;69.80;;;;;;21076372;28;20051;-63
2022/11/11 19:04:31;;;;;;;8.88;4.10;;;16.00;68.40;;;;;;21076783;28;20440;-65
2022/11/11 19:14:33;;;;;;;7.35;3.90;;;16.00;68.80;;;;;;21087803;28;20443;-64
2022/11/11 19:24:35;;;;;;;8.63;3.25;;;15.80;69.10;;;;;;21093236;28;20048;-61
2022/11/11 19:34:36;;;;;;;12.23;6.68;;;15.80;68.30;;;;;;21096236;28;20044;-62
2022/11/11 19:44:38;;;;;;;17.75;9.98;;;15.70;68.70;;;;;;21091537;28;20052;-66
2022/11/11 19:54:39;;;;;;;7.63;4.47;;;15.70;69.10;;;;;;21089071;28;20058;-63
2022/11/11 20:04:41;;;;;;;8.60;4.53;;;15.70;68.20;;;;;;21087272;28;20051;-63
2022/11/11 20:14:42;;;;;;;11.55;5.80;;;15.60;68.10;;;;;;21086259;28;20462;-63
2022/11/11 20:24:44;;;;;;;9.35;5.00;;;15.60;67.60;;;;;;21086117;28;20489;-64
2022/11/11 20:34:46;;;;;;;7.68;4.47;;;15.50;67.20;;;;;;21085223;28;20126;-62
2022/11/11 20:44:48;;;;;;;9.13;4.40;;;15.50;66.40;;;;;;21083705;28;20051;-63
2022/11/11 20:54:50;;;;;;;9.85;4.32;;;15.50;65.70;;;;;;21082065;28;20064;-64
2022/11/11 21:04:52;;;;;;;10.02;4.60;;;15.50;65.40;;;;;;21081881;28;20047;-65
2022/11/11 21:14:55;;;;;;;6.95;3.30;;;15.50;66.00;;;;;;21081450;28;20101;-64
2022/11/11 21:24:58;;;;;;;6.68;3.28;;;15.60;65.80;;;;;;21081541;28;20139;-63
2022/11/11 21:35:00;;;;;;;7.78;3.40;;;15.60;65.50;;;;;;21078530;28;20040;-64
2022/11/11 21:45:02;;;;;;;5.70;3.63;;;15.60;65.20;;;;;;21114199;28;20549;-65
2022/11/11 21:55:05;;;;;;;10.35;5.55;;;15.60;65.80;;;;;;21163581;28;20412;-65
2022/11/11 22:05:07;;;;;;;8.30;3.35;;;15.50;66.10;;;;;;21144053;28;20081;-63
2022/11/11 22:15:09;;;;;;;8.05;2.95;;;15.50;66.50;;;;;;21161928;28;20048;-63
2022/11/11 22:25:10;;;;;;;8.10;3.28;;;15.40;66.50;;;;;;21143721;28;20047;-65
2022/11/11 22:35:12;;;;;;;5.88;3.35;;;15.40;66.80;;;;;;21161605;28;20494;-64
2022/11/11 22:45:14;;;;;;;8.75;3.30;;;15.50;67.00;;;;;;21167943;28;20052;-64
2022/11/11 22:55:15;;;;;;;8.63;4.32;;;15.40;67.40;;;;;;21177145;28;20047;-65
2022/11/11 23:05:17;;;;;;;10.75;4.95;;;15.30;67.70;;;;;;21175839;28;20048;-64
2022/11/11 23:15:19;;;;;;;10.13;4.13;;;15.20;68.00;;;;;;21174804;28;20043;-63
2022/11/11 23:25:21;;;;;;;11.30;3.65;;;15.20;68.40;;;;;;21175044;28;20330;-63
2022/11/11 23:35:23;;;;;;;9.40;3.83;;;15.10;68.70;;;;;;21174014;28;20109;-65
2022/11/11 23:45:25;;;;;;;11.45;4.88;;;15.10;68.70;;;;;;21173411;28;20059;-64
2022/11/11 23:55:26;;;;;;;8.18;3.53;;;15.00;69.00;;;;;;21171575;28;20493;-63
